Time;durP1;ratioP1;P1;durP2;ratioP2;P2;SDS_P1;SDS_P2;PMS_P1;PMS_P2;Temp;Humidity;BMP_temperature;BMP_pressure;BME280_temperature;BME280_humidity;BME280_pressure;Samples;Min_cycle;Max_cycle;Signal;HPM_P1;HPM_P2
2022/09/30 00:00:34;;;;;;;13.33;11.27;;;8.20;99.90;;;;;;5118313;28;20204;-89
2022/09/30 00:03:02;;;;;;;14.00;11.63;;;8.20;99.90;;;;;;5117686;28;20569;-91
2022/09/30 00:05:31;;;;;;;14.00;10.83;;;8.10;99.90;;;;;;5118099;28;20585;-89
2022/09/30 00:08:00;;;;;;;12.50;11.20;;;8.10;99.90;;;;;;5117164;28;20248;-90
2022/09/30 00:10:27;;;;;;;13.10;11.57;;;8.10;99.90;;;;;;5117046;28;20200;-89
2022/09/30 00:13:00;;;;;;;14.20;11.33;;;8.00;99.90;;;;;;5117110;28;20207;-89
2022/09/30 00:15:29;;;;;;;16.27;12.00;;;8.10;99.90;;;;;;5116649;28;20232;-89
2022/09/30 00:17:55;;;;;;;16.63;12.33;;;8.00;99.90;;;;;;5116380;28;20200;-89
2022/09/30 00:20:24;;;;;;;13.20;11.53;;;8.10;99.90;;;;;;5116031;28;20203;-90
2022/09/30 00:23:02;;;;;;;14.77;11.47;;;8.10;99.90;;;;;;5132994;27;20199;-89
2022/09/30 00:25:31;;;;;;;17.13;12.20;;;8.10;99.90;;;;;;5137469;27;20260;-89
2022/09/30 00:27:57;;;;;;;15.47;12.20;;;8.10;99.90;;;;;;5137482;27;20199;-89
2022/09/30 00:30:33;;;;;;;13.20;11.90;;;8.10;99.90;;;;;;5137617;27;20264;-91
2022/09/30 00:33:03;;;;;;;14.63;12.17;;;8.20;99.90;;;;;;5136789;27;20199;-89
2022/09/30 00:35:30;;;;;;;13.23;11.83;;;8.20;99.90;;;;;;5136692;27;20238;-91
2022/09/30 00:38:00;;;;;;;14.50;12.40;;;8.20;99.90;;;;;;5137030;27;20195;-90
2022/09/30 00:40:30;;;;;;;15.20;12.00;;;8.10;99.90;;;;;;5136903;27;20689;-90
2022/09/30 00:42:59;;;;;;;13.90;12.00;;;8.10;99.90;;;;;;5137002;27;20208;-90
2022/09/30 00:45:35;;;;;;;14.27;12.03;;;8.10;99.90;;;;;;5136925;27;20309;-89
2022/09/30 00:48:07;;;;;;;17.40;11.93;;;8.00;99.90;;;;;;5136803;27;20203;-90
2022/09/30 00:50:44;;;;;;;14.03;11.17;;;8.00;99.90;;;;;;5136871;27;20227;-90
2022/09/30 00:53:16;;;;;;;13.20;11.13;;;7.90;99.90;;;;;;5137120;27;20264;-89
2022/09/30 00:55:49;;;;;;;13.67;11.93;;;7.80;99.90;;;;;;5136932;27;20599;-90
2022/09/30 00:58:22;;;;;;;17.23;14.68;;;7.80;99.90;;;;;;5136050;27;20428;-90
2022/09/30 01:00:52;;;;;;;14.47;11.80;;;7.90;99.90;;;;;;5136373;27;20192;-90
2022/09/30 01:03:22;;;;;;;13.43;11.93;;;7.90;99.90;;;;;;5136537;27;20211;-90
2022/09/30 01:05:50;;;;;;;13.80;11.13;;;7.90;99.90;;;;;;5136327;27;20211;-90
2022/09/30 01:08:19;;;;;;;12.53;11.23;;;7.90;99.90;;;;;;5136203;27;20703;-90
2022/09/30 01:10:46;;;;;;;16.47;11.60;;;7.80;99.90;;;;;;5136276;27;20200;-89
2022/09/30 01:13:16;;;;;;;14.07;11.47;;;7.80;99.90;;;;;;5136173;27;20188;-89
2022/09/30 01:16:05;;;;;;;14.23;11.70;;;7.80;99.90;;;;;;5135834;27;20234;-90
2022/09/30 01:18:46;;;;;;;12.23;10.70;;;7.80;99.90;;;;;;5137002;27;20257;-89
2022/09/30 01:21:52;;;;;;;13.17;11.63;;;7.80;99.90;;;;;;5136455;27;20207;-90
2022/09/30 01:24:47;;;;;;;14.10;12.37;;;7.80;99.90;;;;;;5112929;27;20199;-90
2022/09/30 01:27:36;;;;;;;17.83;14.95;;;7.70;99.90;;;;;;5136562;27;20425;-90
2022/09/30 01:30:18;;;;;;;13.93;12.20;;;7.70;99.90;;;;;;5135796;27;20210;-90
2022/09/30 01:33:19;;;;;;;14.30;12.80;;;7.70;99.90;;;;;;5135983;27;20203;-90
2022/09/30 01:36:07;;;;;;;16.37;12.70;;;7.70;99.90;;;;;;5135800;27;20228;-91
2022/09/30 01:38:48;;;;;;;16.27;12.90;;;7.70;99.90;;;;;;5136133;27;20222;-91
2022/09/30 01:41:27;;;;;;;15.40;12.23;;;7.70;99.90;;;;;;5135935;27;20199;-92
2022/09/30 01:44:03;;;;;;;17.10;13.20;;;7.60;99.90;;;;;;5135698;27;20195;-92
2022/09/30 01:46:37;;;;;;;17.30;12.87;;;7.70;99.90;;;;;;5136115;27;20203;-93
2022/09/30 01:49:19;;;;;;;14.80;13.00;;;7.60;99.90;;;;;;5135747;27;20659;-91
2022/09/30 01:52:00;;;;;;;14.57;13.03;;;7.50;99.90;;;;;;5135681;27;20244;-91
2022/09/30 01:54:32;;;;;;;18.00;13.83;;;7.40;99.90;;;;;;5135425;27;20222;-92
2022/09/30 01:57:07;;;;;;;22.75;19.70;;;7.50;99.90;;;;;;5134505;27;20415;-91
2022/09/30 01:59:41;;;;;;;21.63;15.50;;;7.60;99.90;;;;;;5135381;27;20206;-91
2022/09/30 02:02:16;;;;;;;18.43;13.87;;;7.80;99.90;;;;;;5135630;27;20203;-91
2022/09/30 02:04:50;;;;;;;18.33;14.17;;;7.60;99.90;;;;;;5135492;27;20270;-91
2022/09/30 02:07:24;;;;;;;18.67;14.93;;;7.60;99.90;;;;;;5135243;27;20208;-90
2022/09/30 02:10:00;;;;;;;15.73;13.90;;;7.60;99.90;;;;;;5135295;27;20635;-91
2022/09/30 02:12:31;;;;;;;15.37;13.67;;;7.60;99.90;;;;;;5135496;27;20235;-91
2022/09/30 02:15:02;;;;;;;15.27;13.67;;;7.60;99.90;;;;;;5134991;27;20214;-92
2022/09/30 02:17:39;;;;;;;17.47;13.60;;;7.70;99.90;;;;;;5135585;27;20195;-91
2022/09/30 02:20:12;;;;;;;19.33;13.73;;;7.60;99.90;;;;;;5135552;27;20206;-91
2022/09/30 02:22:46;;;;;;;17.27;12.67;;;7.60;99.90;;;;;;5135398;28;20219;-92
2022/09/30 02:25:19;;;;;;;19.17;17.17;;;7.50;99.90;;;;;;5134818;28;20431;-93
2022/09/30 02:28:04;;;;;;;16.37;14.67;;;7.50;99.90;;;;;;5135210;28;20192;-91
2022/09/30 02:30:34;;;;;;;23.07;15.43;;;7.60;99.90;;;;;;5135290;28;20191;-92
2022/09/30 02:33:05;;;;;;;17.93;13.63;;;7.50;99.90;;;;;;5135556;28;20204;-92
2022/09/30 02:35:39;;;;;;;17.53;14.27;;;7.50;99.90;;;;;;5134942;28;20227;-92
2022/09/30 02:38:11;;;;;;;18.73;15.17;;;7.30;99.90;;;;;;5134729;28;20206;-92
2022/09/30 02:40:47;;;;;;;17.53;13.97;;;7.30;99.90;;;;;;5120208;28;20212;-92
2022/09/30 02:43:18;;;;;;;18.70;14.57;;;7.30;99.90;;;;;;5117512;28;20200;-91
2022/09/30 02:45:50;;;;;;;17.37;15.17;;;7.30;99.90;;;;;;5119836;28;20207;-93
2022/09/30 02:48:30;;;;;;;16.43;14.70;;;7.50;99.90;;;;;;5119674;28;20192;-92
2022/09/30 02:51:10;;;;;;;17.83;15.43;;;7.50;99.90;;;;;;5119971;27;20207;-91
2022/09/30 02:53:43;;;;;;;17.33;15.30;;;7.60;99.90;;;;;;5130566;28;20207;-91
2022/09/30 02:56:23;;;;;;;16.27;14.57;;;7.50;99.90;;;;;;5132220;28;20228;-91
2022/09/30 02:58:52;;;;;;;17.93;14.40;;;7.50;99.90;;;;;;5132247;28;20188;-91
2022/09/30 03:01:20;;;;;;;16.90;13.93;;;7.50;99.90;;;;;;5133785;28;20212;-91
2022/09/30 03:03:50;;;;;;;18.63;15.03;;;7.60;99.90;;;;;;5132851;28;20205;-91
2022/09/30 03:06:20;;;;;;;18.70;15.37;;;7.50;99.90;;;;;;5131922;28;20212;-92
2022/09/30 03:08:48;;;;;;;18.33;15.33;;;7.60;99.90;;;;;;5132100;28;20234;-91
2022/09/30 03:11:17;;;;;;;20.67;15.57;;;7.60;99.90;;;;;;5129310;28;20663;-92
2022/09/30 03:13:55;;;;;;;18.27;15.87;;;7.60;99.90;;;;;;5118463;28;20570;-91
2022/09/30 03:16:44;;;;;;;19.83;16.03;;;7.50;99.90;;;;;;5118597;28;20223;-91
2022/09/30 03:19:31;;;;;;;18.07;15.93;;;7.50;99.90;;;;;;5118321;28;20207;-91
2022/09/30 03:22:18;;;;;;;17.70;15.17;;;7.40;99.90;;;;;;5118454;28;20204;-92
2022/09/30 03:25:03;;;;;;;18.13;15.13;;;7.50;99.90;;;;;;5118447;28;20196;-91
2022/09/30 03:28:03;;;;;;;20.40;15.50;;;7.40;99.90;;;;;;5117951;28;20200;-92
2022/09/30 03:30:38;;;;;;;18.60;15.63;;;7.50;99.90;;;;;;5117925;28;20265;-92
2022/09/30 03:33:21;;;;;;;20.10;17.00;;;7.50;99.90;;;;;;5118169;28;20600;-91
2022/09/30 03:36:01;;;;;;;19.03;15.57;;;7.50;99.90;;;;;;5117702;28;20232;-91
2022/09/30 03:38:41;;;;;;;22.30;17.90;;;7.40;99.90;;;;;;5118212;28;20196;-91
2022/09/30 03:41:14;;;;;;;25.50;18.23;;;7.40;99.90;;;;;;5120207;28;20222;-90
2022/09/30 03:43:48;;;;;;;20.87;17.67;;;7.40;99.90;;;;;;5117530;28;20204;-92
2022/09/30 03:46:21;;;;;;;23.90;17.53;;;7.60;99.90;;;;;;5117604;28;20208;-88
2022/09/30 03:48:50;;;;;;;24.03;18.07;;;7.50;99.90;;;;;;5116856;28;20200;-89
2022/09/30 03:51:19;;;;;;;24.00;18.00;;;7.60;99.90;;;;;;5115515;28;20200;-92
2022/09/30 03:53:47;;;;;;;21.90;17.57;;;7.60;99.90;;;;;;5116550;28;20189;-90
2022/09/30 03:56:14;;;;;;;22.80;17.93;;;7.60;99.90;;;;;;5116288;28;20224;-87
2022/09/30 03:58:43;;;;;;;20.30;17.47;;;7.60;99.90;;;;;;5117238;28;20196;-93
2022/09/30 04:01:18;;;;;;;21.83;17.57;;;7.60;99.90;;;;;;5116940;28;20565;-90
2022/09/30 04:03:50;;;;;;;22.20;17.90;;;7.60;99.90;;;;;;5116856;28;20265;-87
2022/09/30 04:06:20;;;;;;;21.07;16.87;;;7.50;99.90;;;;;;5116605;28;20196;-89
2022/09/30 04:08:49;;;;;;;21.53;17.53;;;7.40;99.90;;;;;;5116224;28;20228;-90
2022/09/30 04:11:16;;;;;;;22.80;17.93;;;7.50;99.90;;;;;;5116611;28;20216;-89
2022/09/30 04:13:44;;;;;;;21.80;18.10;;;7.30;99.90;;;;;;5116679;28;20201;-88
2022/09/30 04:16:17;;;;;;;23.90;18.57;;;7.40;99.90;;;;;;5116143;28;20228;-89
2022/09/30 04:18:45;;;;;;;24.47;18.67;;;7.40;99.90;;;;;;5116595;28;20199;-90
2022/09/30 04:21:14;;;;;;;28.00;21.48;;;7.40;99.90;;;;;;5115826;28;20435;-88
2022/09/30 04:23:42;;;;;;;21.97;19.53;;;7.40;99.90;;;;;;5116289;28;20593;-88
2022/09/30 04:26:13;;;;;;;22.83;19.10;;;7.40;99.90;;;;;;5116041;28;20204;-88
2022/09/30 04:28:40;;;;;;;22.63;18.50;;;7.40;99.90;;;;;;5116103;28;20239;-88
2022/09/30 04:31:07;;;;;;;25.27;18.53;;;7.30;99.90;;;;;;5116084;28;20204;-87
2022/09/30 04:33:34;;;;;;;26.33;20.30;;;7.40;99.90;;;;;;5115577;28;20726;-87
2022/09/30 04:36:01;;;;;;;24.83;20.00;;;7.40;99.90;;;;;;5115544;28;20225;-87
2022/09/30 04:38:29;;;;;;;25.13;20.63;;;7.40;99.90;;;;;;5115555;28;20287;-89
2022/09/30 04:40:57;;;;;;;25.07;21.17;;;7.50;99.90;;;;;;5116241;28;20636;-88
2022/09/30 04:43:25;;;;;;;25.10;20.50;;;7.50;99.90;;;;;;5115289;28;20200;-88
2022/09/30 04:45:53;;;;;;;24.03;20.80;;;7.40;99.90;;;;;;5115226;28;20648;-86
2022/09/30 04:48:21;;;;;;;26.23;20.73;;;7.40;99.90;;;;;;5116000;28;20562;-87
2022/09/30 04:50:49;;;;;;;25.63;20.20;;;7.40;99.90;;;;;;5115850;28;20192;-89
2022/09/30 04:53:19;;;;;;;26.10;20.37;;;7.40;99.90;;;;;;5115241;28;20546;-86
2022/09/30 04:55:46;;;;;;;23.87;20.63;;;7.30;99.90;;;;;;5115248;28;20279;-87
2022/09/30 04:58:14;;;;;;;24.70;20.07;;;7.40;99.90;;;;;;5115723;28;20207;-91
2022/09/30 05:00:42;;;;;;;22.73;19.97;;;7.40;99.90;;;;;;5116151;27;20200;-91
2022/09/30 05:03:09;;;;;;;21.67;19.33;;;7.30;99.90;;;;;;5135801;27;20208;-89
2022/09/30 05:05:36;;;;;;;26.63;19.47;;;7.40;99.90;;;;;;5134794;27;20211;-87
2022/09/30 05:08:04;;;;;;;25.10;19.07;;;7.40;99.90;;;;;;5134969;27;20238;-89
2022/09/30 05:10:31;;;;;;;28.13;19.97;;;7.40;99.90;;;;;;5135563;27;20196;-87
2022/09/30 05:12:58;;;;;;;24.17;20.80;;;7.50;99.90;;;;;;5135953;27;20192;-90
2022/09/30 05:15:26;;;;;;;26.57;19.90;;;7.50;99.90;;;;;;5136061;27;20250;-89
2022/09/30 05:17:54;;;;;;;25.77;20.10;;;7.50;99.90;;;;;;5135913;27;20203;-88
2022/09/30 05:20:21;;;;;;;21.93;18.70;;;7.40;99.90;;;;;;5135400;27;20200;-89
2022/09/30 05:22:53;;;;;;;30.57;20.07;;;7.40;99.90;;;;;;5135196;27;20196;-88
2022/09/30 05:25:23;;;;;;;23.97;19.53;;;7.50;99.90;;;;;;5135174;27;20179;-90
2022/09/30 05:27:50;;;;;;;27.40;18.93;;;7.40;99.90;;;;;;5135271;27;20623;-90
2022/09/30 05:30:17;;;;;;;23.63;18.93;;;7.40;99.90;;;;;;5135151;27;20223;-88
2022/09/30 05:32:44;;;;;;;25.00;20.03;;;7.40;99.90;;;;;;5135551;27;20203;-93
2022/09/30 05:35:14;;;;;;;25.43;19.53;;;7.40;99.90;;;;;;5135280;27;20290;-90
2022/09/30 05:37:44;;;;;;;23.90;18.97;;;7.40;99.90;;;;;;5135084;27;20210;-92
2022/09/30 05:40:11;;;;;;;27.77;20.37;;;7.40;99.90;;;;;;5135163;27;20194;-87
2022/09/30 05:42:37;;;;;;;23.83;19.27;;;7.40;99.90;;;;;;5135668;27;20207;-91
2022/09/30 05:45:05;;;;;;;23.93;18.67;;;7.30;99.90;;;;;;5134990;27;20208;-89
2022/09/30 05:47:32;;;;;;;26.07;19.37;;;7.40;99.90;;;;;;5134904;27;20210;-89
2022/09/30 05:49:59;;;;;;;22.30;18.80;;;7.30;99.90;;;;;;5134749;27;20553;-87
2022/09/30 05:52:28;;;;;;;22.07;18.50;;;7.20;99.90;;;;;;5116677;27;20236;-89
2022/09/30 05:54:56;;;;;;;24.97;17.97;;;7.20;99.90;;;;;;5114240;28;20629;-88
2022/09/30 05:57:24;;;;;;;22.03;17.13;;;7.30;99.90;;;;;;5114151;28;20273;-88
2022/09/30 05:59:51;;;;;;;24.77;17.97;;;7.30;99.90;;;;;;5114182;28;20204;-91
2022/09/30 06:02:18;;;;;;;22.83;18.03;;;7.20;99.90;;;;;;5127133;27;20210;-92
2022/09/30 06:04:47;;;;;;;21.90;17.30;;;7.10;99.90;;;;;;5135132;27;20682;-90
2022/09/30 06:07:14;;;;;;;22.97;17.30;;;7.10;99.90;;;;;;5135187;27;20222;-90
2022/09/30 06:09:44;;;;;;;19.93;17.50;;;7.10;99.90;;;;;;5135254;27;20235;-88
2022/09/30 06:12:12;;;;;;;24.93;18.53;;;7.10;99.90;;;;;;5134518;27;20663;-93
2022/09/30 06:14:39;;;;;;;25.77;18.43;;;7.10;99.90;;;;;;5135371;27;20192;-89
2022/09/30 06:17:07;;;;;;;22.73;18.70;;;7.10;99.90;;;;;;5134370;27;20229;-87
2022/09/30 06:19:34;;;;;;;26.07;18.30;;;7.10;99.90;;;;;;5134197;27;20211;-87
2022/09/30 06:22:01;;;;;;;23.47;18.57;;;7.20;99.90;;;;;;5133938;27;20199;-88
2022/09/30 06:24:27;;;;;;;24.63;19.47;;;7.30;99.90;;;;;;5134885;28;20192;-89
2022/09/30 06:26:56;;;;;;;21.80;18.17;;;7.30;99.90;;;;;;5134104;28;20217;-86
2022/09/30 06:29:23;;;;;;;24.10;20.13;;;7.30;99.90;;;;;;5134535;28;20650;-87
2022/09/30 06:31:50;;;;;;;27.67;20.60;;;7.40;99.90;;;;;;5134365;28;20204;-88
2022/09/30 06:34:17;;;;;;;23.77;20.03;;;7.40;99.90;;;;;;5134071;28;20200;-88
2022/09/30 06:36:45;;;;;;;23.67;19.50;;;7.40;99.90;;;;;;5134602;28;20219;-89
2022/09/30 06:39:12;;;;;;;30.13;21.23;;;7.50;99.90;;;;;;5134543;28;20200;-87
2022/09/30 06:41:42;;;;;;;26.27;21.13;;;7.50;99.90;;;;;;5133747;28;20188;-87
2022/09/30 06:44:11;;;;;;;28.57;22.57;;;7.40;99.90;;;;;;5128063;28;20211;-87
2022/09/30 06:46:38;;;;;;;27.33;22.90;;;7.40;99.90;;;;;;5112945;28;20648;-88
2022/09/30 06:49:06;;;;;;;37.97;32.35;;;7.60;99.90;;;;;;5112012;28;20532;-87
2022/09/30 06:51:33;;;;;;;31.40;26.07;;;7.70;99.90;;;;;;5112712;28;20200;-88
2022/09/30 06:54:01;;;;;;;30.70;24.17;;;7.80;99.90;;;;;;5113344;28;20184;-89
2022/09/30 06:56:30;;;;;;;29.67;24.13;;;7.90;99.90;;;;;;5113593;28;20687;-91
2022/09/30 06:58:57;;;;;;;32.57;24.10;;;7.90;99.90;;;;;;5113782;28;20185;-90
2022/09/30 07:01:25;;;;;;;27.00;24.07;;;7.90;99.90;;;;;;5118149;28;20212;-91
2022/09/30 07:03:56;;;;;;;30.93;24.27;;;8.00;99.90;;;;;;5126926;28;20200;-90
2022/09/30 07:06:24;;;;;;;27.97;24.00;;;8.00;99.90;;;;;;5134151;28;20218;-90
2022/09/30 07:08:55;;;;;;;34.83;24.53;;;8.00;99.90;;;;;;5133344;28;20227;-88
2022/09/30 07:11:25;;;;;;;32.70;24.40;;;8.10;99.90;;;;;;5134364;28;20207;-90
2022/09/30 07:13:52;;;;;;;33.53;24.93;;;8.20;99.90;;;;;;5134431;28;20204;-89
2022/09/30 07:16:20;;;;;;;30.10;25.17;;;8.20;99.90;;;;;;5134390;28;20686;-85
2022/09/30 07:18:49;;;;;;;26.33;22.90;;;8.40;99.90;;;;;;5133670;28;20239;-87
2022/09/30 07:21:16;;;;;;;30.83;23.67;;;8.40;99.90;;;;;;5134403;28;20204;-88
2022/09/30 07:23:46;;;;;;;36.13;25.30;;;8.50;99.90;;;;;;5133700;28;20199;-88
2022/09/30 07:26:13;;;;;;;36.60;24.70;;;8.50;99.90;;;;;;5133967;27;20208;-81
2022/09/30 07:28:40;;;;;;;34.33;24.57;;;8.60;99.90;;;;;;5135193;27;20208;-84
2022/09/30 07:31:10;;;;;;;30.33;24.53;;;8.80;99.90;;;;;;5133051;27;20192;-83
2022/09/30 07:33:38;;;;;;;35.87;23.17;;;8.90;99.90;;;;;;5132841;27;20196;-86
2022/09/30 07:36:07;;;;;;;32.60;23.33;;;9.00;99.90;;;;;;5125868;27;20220;-83
2022/09/30 07:38:37;;;;;;;32.73;23.40;;;9.10;99.90;;;;;;5131372;27;20203;-83
2022/09/30 07:41:07;;;;;;;26.47;22.33;;;9.30;99.90;;;;;;5128966;27;20193;-83
2022/09/30 07:43:39;;;;;;;30.03;21.53;;;9.30;99.90;;;;;;5126995;27;20196;-83
2022/09/30 07:46:07;;;;;;;24.13;21.50;;;9.40;99.90;;;;;;5130176;27;20295;-81
2022/09/30 07:48:42;;;;;;;28.27;22.23;;;9.40;99.90;;;;;;5136695;27;20203;-78
2022/09/30 07:51:11;;;;;;;25.87;20.00;;;9.60;99.90;;;;;;5136720;27;20290;-82
2022/09/30 07:53:40;;;;;;;22.00;19.60;;;9.60;99.90;;;;;;5137019;27;20188;-78
2022/09/30 07:56:07;;;;;;;24.87;19.43;;;9.70;99.90;;;;;;5131156;27;20219;-80
2022/09/30 07:58:34;;;;;;;25.17;18.90;;;9.80;99.90;;;;;;5115081;28;20663;-79
2022/09/30 08:01:01;;;;;;;20.13;18.00;;;10.00;99.90;;;;;;5115315;28;20196;-82
2022/09/30 08:03:28;;;;;;;20.50;18.23;;;10.00;99.90;;;;;;5134946;27;20571;-83
2022/09/30 08:05:55;;;;;;;20.60;16.80;;;10.10;99.90;;;;;;5133340;27;20203;-82
2022/09/30 08:08:23;;;;;;;19.37;17.37;;;10.20;99.90;;;;;;5121556;27;20236;-83
2022/09/30 08:10:50;;;;;;;19.30;16.43;;;10.30;99.90;;;;;;5115728;28;20208;-85
2022/09/30 08:13:18;;;;;;;22.50;16.70;;;10.30;99.90;;;;;;5133296;27;20281;-83
2022/09/30 08:15:45;;;;;;;21.10;17.25;;;10.40;99.90;;;;;;5133163;27;20546;-81
2022/09/30 08:18:12;;;;;;;16.97;14.93;;;10.50;99.90;;;;;;5132231;27;21010;-81
2022/09/30 08:20:39;;;;;;;23.60;14.80;;;10.60;99.90;;;;;;5116148;28;20671;-80
2022/09/30 08:23:05;;;;;;;17.10;14.20;;;10.60;99.90;;;;;;5115342;28;20201;-84
2022/09/30 08:25:35;;;;;;;20.03;14.53;;;10.70;99.90;;;;;;5122735;27;20192;-83
2022/09/30 08:28:02;;;;;;;18.23;14.50;;;10.80;99.90;;;;;;5131959;27;20620;-78
2022/09/30 08:30:29;;;;;;;17.70;13.40;;;10.90;99.90;;;;;;5135457;27;20204;-79
2022/09/30 08:32:55;;;;;;;17.57;13.30;;;11.00;99.90;;;;;;5136267;27;20641;-79
2022/09/30 08:35:22;;;;;;;14.03;11.73;;;11.10;99.90;;;;;;5135868;27;20630;-80
2022/09/30 08:37:50;;;;;;;18.20;13.20;;;11.40;99.90;;;;;;5136200;27;20243;-78
2022/09/30 08:40:21;;;;;;;18.03;12.50;;;11.40;99.90;;;;;;5135027;27;20205;-80
2022/09/30 08:43:03;;;;;;;13.17;11.60;;;11.50;99.90;;;;;;5136096;27;20202;-80
2022/09/30 08:45:39;;;;;;;13.82;11.88;;;11.80;99.90;;;;;;5134992;27;20442;-79
2022/09/30 08:48:18;;;;;;;11.80;10.50;;;11.90;99.90;;;;;;5136315;27;20209;-78
2022/09/30 08:50:53;;;;;;;14.00;10.37;;;12.10;99.90;;;;;;5135732;27;20690;-80
2022/09/30 08:53:26;;;;;;;11.97;10.07;;;12.10;99.90;;;;;;5134342;27;20202;-79
2022/09/30 08:55:56;;;;;;;11.40;8.93;;;12.20;99.90;;;;;;5133915;27;20203;-80
2022/09/30 08:58:28;;;;;;;11.60;8.77;;;12.30;99.90;;;;;;5135680;27;20229;-79
2022/09/30 09:00:59;;;;;;;9.87;8.30;;;12.40;99.90;;;;;;5135599;27;20563;-84
2022/09/30 09:03:30;;;;;;;12.23;8.77;;;12.60;99.90;;;;;;5135064;27;20203;-84
2022/09/30 09:06:11;;;;;;;9.00;7.73;;;12.60;99.90;;;;;;5135671;27;20210;-84
2022/09/30 09:08:53;;;;;;;15.20;8.70;;;12.70;99.90;;;;;;5135485;27;20235;-84
2022/09/30 09:11:35;;;;;;;12.27;8.17;;;12.90;99.90;;;;;;5135736;27;20205;-83
2022/09/30 09:14:10;;;;;;;15.50;7.90;;;13.00;99.90;;;;;;5135521;27;20210;-84
2022/09/30 09:16:44;;;;;;;12.97;7.33;;;13.00;99.90;;;;;;5137677;27;20223;-84
2022/09/30 09:19:19;;;;;;;8.23;6.87;;;13.10;99.90;;;;;;5140117;27;20230;-82
2022/09/30 09:21:52;;;;;;;8.87;6.40;;;13.30;99.90;;;;;;5135300;27;20184;-85
2022/09/30 09:24:21;;;;;;;8.23;6.50;;;13.40;99.90;;;;;;5135400;27;20210;-84
2022/09/30 09:26:50;;;;;;;9.93;6.87;;;13.50;99.90;;;;;;5135077;27;20203;-83
2022/09/30 09:29:36;;;;;;;8.93;5.93;;;13.60;99.90;;;;;;5135083;27;20195;-84
2022/09/30 09:32:11;;;;;;;7.57;6.10;;;13.70;99.90;;;;;;5135262;27;20203;-83
2022/09/30 09:34:37;;;;;;;7.97;6.20;;;13.80;99.90;;;;;;5135268;27;20199;-84
2022/09/30 09:37:16;;;;;;;9.60;6.53;;;13.90;99.90;;;;;;5133924;27;20215;-83
2022/09/30 09:39:59;;;;;;;7.87;6.10;;;14.10;99.90;;;;;;5134368;27;20655;-84
2022/09/30 09:42:47;;;;;;;10.67;6.57;;;14.20;99.90;;;;;;5134579;27;20578;-83
2022/09/30 09:45:26;;;;;;;8.60;7.00;;;14.10;99.90;;;;;;5132917;27;20832;-84
2022/09/30 09:47:56;;;;;;;7.77;6.97;;;14.20;99.90;;;;;;5135120;27;20208;-83
2022/09/30 09:50:27;;;;;;;7.57;6.13;;;14.30;99.90;;;;;;5134641;27;20536;-83
2022/09/30 09:53:09;;;;;;;9.10;6.47;;;14.50;99.90;;;;;;5134530;27;20199;-84
2022/09/30 09:55:37;;;;;;;12.63;5.57;;;14.50;99.90;;;;;;5134754;27;20206;-83
2022/09/30 09:58:10;;;;;;;6.27;5.10;;;14.60;99.90;;;;;;5134398;27;20755;-83
2022/09/30 10:03:25;;;;;;;12.60;5.97;;;14.70;99.90;;;;;;5134744;27;20189;-83
2022/09/30 10:06:09;;;;;;;7.10;5.40;;;14.90;99.90;;;;;;5128246;27;20567;-84
2022/09/30 10:08:38;;;;;;;8.83;6.10;;;15.00;99.90;;;;;;5118578;27;20239;-80
2022/09/30 10:11:07;;;;;;;7.90;5.50;;;15.00;99.90;;;;;;5112509;28;20202;-83
2022/09/30 10:13:43;;;;;;;7.10;4.87;;;14.90;99.90;;;;;;5113664;28;20552;-85
2022/09/30 10:16:27;;;;;;;8.20;6.00;;;15.00;99.90;;;;;;5112880;28;20432;-80
2022/09/30 10:18:55;;;;;;;7.10;5.77;;;15.10;99.90;;;;;;5113996;28;20202;-79
2022/09/30 10:21:24;;;;;;;9.07;5.90;;;15.10;99.90;;;;;;5113959;28;20208;-80
2022/09/30 10:23:50;;;;;;;6.17;5.37;;;15.20;99.90;;;;;;5113852;28;20197;-81
2022/09/30 10:26:20;;;;;;;5.87;5.27;;;15.40;99.90;;;;;;5113692;28;20197;-80
2022/09/30 10:28:49;;;;;;;9.33;5.17;;;15.40;99.90;;;;;;5114249;28;20202;-81
2022/09/30 10:31:22;;;;;;;6.57;4.90;;;15.50;99.90;;;;;;5113981;28;20565;-81
2022/09/30 10:33:57;;;;;;;5.30;4.90;;;15.50;99.90;;;;;;5113948;28;20635;-88
2022/09/30 10:36:31;;;;;;;6.93;4.67;;;15.60;99.90;;;;;;5114276;28;20195;-83
2022/09/30 10:39:00;;;;;;;5.90;5.23;;;15.50;99.90;;;;;;5115630;28;20203;-87
2022/09/30 10:41:29;;;;;;;5.50;4.50;;;15.60;99.90;;;;;;5114722;28;20210;-86
2022/09/30 10:43:59;;;;;;;6.00;5.40;;;15.60;99.90;;;;;;5114633;28;20417;-87
2022/09/30 10:46:29;;;;;;;7.43;4.83;;;15.60;99.90;;;;;;5114726;28;20686;-84
2022/09/30 10:48:57;;;;;;;8.00;5.43;;;15.60;99.90;;;;;;5115233;28;20201;-89
2022/09/30 10:51:32;;;;;;;5.40;5.00;;;15.50;99.90;;;;;;5114300;28;20194;-89
2022/09/30 10:54:00;;;;;;;6.10;5.53;;;15.60;99.90;;;;;;5114106;28;20225;-83
2022/09/30 10:56:36;;;;;;;6.13;5.53;;;15.70;99.90;;;;;;5114514;28;20648;-88
2022/09/30 10:59:06;;;;;;;7.37;5.90;;;15.80;99.90;;;;;;5115192;28;20256;-90
2022/09/30 11:01:38;;;;;;;7.80;6.47;;;15.80;99.90;;;;;;5114790;28;20270;-89
2022/09/30 11:04:12;;;;;;;8.93;5.97;;;15.90;99.90;;;;;;5116857;28;20199;-89
2022/09/30 11:06:40;;;;;;;6.40;5.80;;;16.00;99.90;;;;;;5118514;28;20203;-89
2022/09/30 11:09:12;;;;;;;6.60;6.00;;;16.00;99.90;;;;;;5117899;28;20227;-86
2022/09/30 11:11:45;;;;;;;6.47;5.57;;;16.10;99.90;;;;;;5124926;28;20200;-85
2022/09/30 11:14:23;;;;;;;6.17;5.60;;;16.10;99.90;;;;;;5118833;28;20223;-85
2022/09/30 11:17:04;;;;;;;12.27;5.50;;;16.10;99.90;;;;;;5118081;28;20249;-88
2022/09/30 11:19:36;;;;;;;5.43;5.03;;;16.20;99.90;;;;;;5118057;28;20185;-89
2022/09/30 11:22:19;;;;;;;5.87;5.37;;;16.30;99.90;;;;;;5118309;28;20199;-89
2022/09/30 11:24:49;;;;;;;11.40;5.17;;;16.40;99.90;;;;;;5118221;28;20656;-89
2022/09/30 11:27:22;;;;;;;6.20;4.80;;;16.50;99.90;;;;;;5117950;28;20267;-84
2022/09/30 11:29:59;;;;;;;5.60;5.07;;;16.50;99.90;;;;;;5117197;28;20204;-87
2022/09/30 11:32:41;;;;;;;7.40;5.10;;;16.50;99.90;;;;;;5128327;27;20192;-88
2022/09/30 11:35:25;;;;;;;10.77;4.63;;;16.30;99.90;;;;;;5125900;27;20196;-88
2022/09/30 11:38:05;;;;;;;6.80;4.80;;;16.30;99.90;;;;;;5116687;28;20229;-86
2022/09/30 11:40:39;;;;;;;6.57;4.50;;;16.30;99.90;;;;;;5123448;27;20201;-88
2022/09/30 11:43:18;;;;;;;6.77;4.60;;;16.50;99.90;;;;;;5126498;27;20195;-87
2022/09/30 11:46:03;;;;;;;4.50;4.10;;;16.60;99.90;;;;;;5128269;27;20197;-87
2022/09/30 11:48:40;;;;;;;8.70;4.93;;;16.70;99.90;;;;;;5122595;27;20217;-85
2022/09/30 11:51:19;;;;;;;7.10;4.77;;;16.80;99.90;;;;;;5117048;28;20558;-87
2022/09/30 11:53:55;;;;;;;8.13;4.90;;;17.00;99.90;;;;;;5116820;28;20208;-87
2022/09/30 11:56:34;;;;;;;5.10;4.60;;;17.00;99.90;;;;;;5123145;28;20204;-86
2022/09/30 11:59:06;;;;;;;5.30;4.80;;;17.00;99.90;;;;;;5122275;28;20215;-87
2022/09/30 12:01:40;;;;;;;5.30;4.83;;;16.90;99.90;;;;;;5122346;28;20202;-87
2022/09/30 12:04:14;;;;;;;6.83;4.80;;;16.70;99.90;;;;;;5122116;28;20204;-86
2022/09/30 12:06:49;;;;;;;7.40;4.20;;;16.60;99.90;;;;;;5121155;28;20189;-82
2022/09/30 12:09:21;;;;;;;4.27;3.97;;;16.70;99.90;;;;;;5122876;27;20814;-82
2022/09/30 12:11:54;;;;;;;4.93;4.40;;;16.70;99.90;;;;;;5118757;28;20178;-87
2022/09/30 12:14:25;;;;;;;4.90;4.40;;;16.70;99.90;;;;;;5117290;28;20568;-88
2022/09/30 12:16:55;;;;;;;8.50;5.00;;;16.70;99.90;;;;;;5117037;28;20206;-87
2022/09/30 12:19:26;;;;;;;4.63;4.17;;;16.80;99.90;;;;;;5116429;28;20239;-86
2022/09/30 12:22:00;;;;;;;5.07;3.90;;;17.00;99.90;;;;;;5121890;27;20193;-87
2022/09/30 12:24:32;;;;;;;5.93;3.90;;;16.80;99.90;;;;;;5124615;27;20202;-87
2022/09/30 12:27:00;;;;;;;4.63;3.97;;;16.70;99.90;;;;;;5123095;27;20200;-86
2022/09/30 12:33:04;;;;;;;5.97;3.90;;;16.90;99.90;;;;;;5126842;27;20199;-87
2022/09/30 12:36:02;;;;;;;4.90;4.50;;;17.00;99.90;;;;;;5102473;28;20207;-85
2022/09/30 12:38:48;;;;;;;5.40;4.90;;;17.20;99.90;;;;;;5103323;28;20230;-86
2022/09/30 12:41:39;;;;;;;5.53;4.30;;;17.20;99.90;;;;;;5115395;28;20222;-88
2022/09/30 12:44:38;;;;;;;5.33;4.20;;;17.40;99.90;;;;;;5113815;28;20220;-84
2022/09/30 12:47:27;;;;;;;4.67;4.27;;;17.40;99.90;;;;;;5117285;27;20196;-85
2022/09/30 12:49:57;;;;;;;4.50;4.17;;;17.40;99.90;;;;;;5115641;28;20199;-86
2022/09/30 12:52:25;;;;;;;4.47;4.07;;;17.50;99.90;;;;;;5123753;27;20276;-85
2022/09/30 12:54:58;;;;;;;4.67;4.23;;;17.60;99.90;;;;;;5134211;27;20198;-86
2022/09/30 12:57:30;;;;;;;4.20;3.80;;;17.70;99.90;;;;;;5136556;27;20189;-87
2022/09/30 13:00:01;;;;;;;4.13;3.80;;;17.60;99.90;;;;;;5136335;27;20206;-88
2022/09/30 13:02:40;;;;;;;4.33;3.90;;;17.60;99.90;;;;;;5136754;27;20206;-88
2022/09/30 13:05:59;;;;;;;4.47;4.13;;;17.60;99.90;;;;;;5136153;27;20191;-87
2022/09/30 13:08:44;;;;;;;7.23;4.00;;;17.70;99.90;;;;;;5136288;27;20238;-87
2022/09/30 13:11:38;;;;;;;5.88;4.22;;;17.60;99.90;;;;;;5102376;27;20899;-87